createdAt,value
2023-07-02T00:02:34.554Z,4.60
2023-07-02T00:06:41.665Z,4.83
2023-07-02T00:10:45.744Z,4.83
2023-07-02T00:14:48.858Z,5.93
2023-07-02T00:18:53.836Z,5.53
2023-07-02T00:22:57.234Z,5.00
2023-07-02T00:27:00.175Z,5.37
2023-07-02T00:31:03.445Z,5.33
2023-07-02T00:35:08.541Z,5.90
2023-07-02T00:39:12.958Z,5.67
2023-07-02T00:43:15.996Z,6.10
2023-07-02T00:47:18.853Z,6.07
2023-07-02T00:51:24.558Z,6.83
2023-07-02T00:55:27.581Z,5.73
2023-07-02T00:59:31.825Z,5.90
2023-07-02T01:03:38.371Z,5.73
2023-07-02T01:07:42.669Z,7.10
2023-07-02T01:11:48.711Z,6.13
2023-07-02T01:15:52.686Z,6.17
2023-07-02T01:20:00.223Z,5.90
2023-07-02T01:24:03.918Z,5.90
2023-07-02T01:28:07.041Z,9.60
2023-07-02T01:32:10.449Z,9.30
2023-07-02T01:36:14.738Z,9.47
2023-07-02T01:40:17.784Z,7.67
2023-07-02T01:44:21.254Z,9.73
2023-07-02T01:48:24.130Z,10.03
2023-07-02T01:52:28.932Z,11.67
2023-07-02T01:56:31.854Z,9.07
2023-07-02T02:00:34.765Z,8.50
2023-07-02T02:04:38.229Z,10.40
2023-07-02T02:08:42.460Z,9.70
2023-07-02T02:12:47.352Z,12.07
2023-07-02T02:16:51.017Z,10.53
2023-07-02T02:20:53.940Z,10.77
2023-07-02T02:24:58.138Z,10.57
2023-07-02T02:29:01.007Z,7.30
2023-07-02T02:33:03.861Z,11.90
2023-07-02T02:37:07.082Z,10.27
2023-07-02T02:41:11.715Z,9.80
2023-07-02T02:45:19.214Z,10.23
2023-07-02T02:49:27.829Z,11.27
2023-07-02T02:53:30.720Z,15.50
2023-07-02T02:57:36.284Z,13.33
2023-07-02T03:01:44.118Z,13.10
2023-07-02T03:05:49.234Z,9.87
2023-07-02T03:09:52.111Z,13.90
2023-07-02T03:13:56.361Z,13.03
2023-07-02T03:18:00.318Z,12.30
2023-07-02T03:22:03.270Z,12.43
2023-07-02T03:26:06.292Z,11.87
2023-07-02T03:30:11.148Z,13.93
2023-07-02T03:34:14.000Z,11.47
2023-07-02T03:38:16.987Z,11.13
2023-07-02T03:42:20.274Z,15.83
2023-07-02T03:46:24.477Z,11.67
2023-07-02T03:50:28.308Z,11.13
2023-07-02T03:54:31.206Z,12.37
2023-07-02T03:58:34.833Z,14.53
2023-07-02T04:02:39.216Z,12.30
2023-07-02T04:06:42.151Z,11.57
2023-07-02T04:10:45.062Z,12.40
2023-07-02T04:14:47.958Z,15.33
2023-07-02T04:18:52.158Z,14.03
2023-07-02T04:22:55.057Z,12.23
2023-07-02T04:27:38.635Z,13.83
2023-07-02T04:31:21.067Z,15.73
2023-07-02T04:35:25.524Z,14.27
2023-07-02T04:39:28.363Z,13.73
2023-07-02T04:43:31.270Z,14.33
2023-07-02T04:47:35.178Z,13.30
2023-07-02T04:51:41.426Z,12.63
2023-07-02T04:55:45.304Z,13.97
2023-07-02T04:59:48.732Z,12.40
2023-07-02T05:03:51.633Z,11.47
2023-07-02T05:07:56.723Z,16.97
2023-07-02T05:11:59.773Z,15.63
2023-07-02T05:16:02.597Z,15.07
2023-07-02T05:20:06.592Z,14.83
2023-07-02T05:24:11.725Z,15.37
2023-07-02T05:28:14.549Z,12.03
2023-07-02T05:32:17.356Z,13.27
2023-07-02T05:36:20.228Z,15.70
2023-07-02T05:40:24.459Z,14.27
2023-07-02T05:44:27.391Z,16.87
2023-07-02T05:48:30.423Z,17.87
2023-07-02T05:52:33.275Z,15.00
2023-07-02T05:56:37.501Z,14.20
2023-07-02T06:00:42.516Z,14.53
2023-07-02T06:04:45.597Z,17.93
2023-07-02T06:08:48.543Z,14.23
2023-07-02T06:12:53.219Z,11.80
2023-07-02T06:16:58.513Z,15.57
2023-07-02T06:21:01.462Z,14.10
2023-07-02T06:25:05.968Z,16.20
2023-07-02T06:29:10.316Z,20.37
2023-07-02T06:33:13.165Z,17.63
2023-07-02T06:37:16.005Z,17.17
2023-07-02T06:41:20.821Z,15.83
2023-07-02T06:45:26.961Z,13.80
2023-07-02T06:49:29.802Z,15.57
2023-07-02T06:53:32.850Z,19.23
2023-07-02T06:57:35.752Z,14.10
2023-07-02T07:01:39.936Z,15.33
2023-07-02T07:05:43.048Z,19.60
2023-07-02T07:09:45.903Z,13.27
2023-07-02T07:13:48.684Z,13.30
2023-07-02T07:17:52.908Z,10.60
2023-07-02T07:21:55.793Z,13.07
2023-07-02T07:25:59.013Z,12.67
2023-07-02T07:30:02.128Z,16.67
2023-07-02T07:34:06.296Z,12.67
2023-07-02T07:38:09.280Z,15.07
2023-07-02T07:42:12.110Z,16.23
2023-07-02T07:46:15.047Z,12.00
2023-07-02T07:50:19.489Z,12.00
2023-07-02T07:54:22.287Z,10.73
2023-07-02T07:58:25.814Z,14.50
2023-07-02T08:02:28.707Z,15.37
2023-07-02T08:06:32.937Z,14.90
2023-07-02T08:10:35.800Z,12.47
2023-07-02T08:14:38.918Z,12.27
2023-07-02T08:18:41.918Z,10.07
2023-07-02T08:22:46.352Z,11.57
2023-07-02T08:26:50.574Z,12.50
2023-07-02T08:30:53.423Z,9.90
2023-07-02T08:34:56.900Z,10.00
2023-07-02T08:39:01.079Z,10.50
2023-07-02T08:43:04.110Z,11.93
2023-07-02T08:47:08.207Z,10.97
2023-07-02T08:51:11.062Z,11.07
2023-07-02T08:55:15.364Z,13.70
2023-07-02T08:59:18.350Z,13.97
2023-07-02T09:03:21.213Z,11.53
2023-07-02T09:07:24.216Z,11.50
2023-07-02T09:11:28.878Z,11.57
2023-07-02T09:15:38.270Z,11.07
2023-07-02T09:19:52.029Z,11.20
2023-07-02T09:23:55.286Z,12.37
2023-07-02T09:27:59.590Z,11.53
2023-07-02T09:32:10.089Z,11.40
2023-07-02T09:36:14.828Z,9.57
2023-07-02T09:40:19.196Z,8.30
2023-07-02T09:44:24.474Z,11.77
2023-07-02T09:48:30.024Z,9.47
2023-07-02T09:52:33.245Z,8.17
2023-07-02T09:56:36.241Z,7.77
2023-07-02T10:00:41.808Z,7.07
2023-07-02T10:04:46.391Z,7.60
2023-07-02T10:08:56.669Z,7.27
2023-07-02T10:13:00.224Z,8.60
2023-07-02T10:17:04.775Z,9.30
2023-07-02T10:21:17.797Z,9.13
2023-07-02T10:25:27.149Z,8.43
2023-07-02T10:29:31.274Z,7.50
2023-07-02T10:33:35.440Z,7.43
2023-07-02T10:37:38.990Z,8.40
2023-07-02T10:41:42.102Z,7.70
2023-07-02T10:45:45.409Z,8.77
2023-07-02T10:49:49.678Z,8.07
2023-07-02T10:53:59.891Z,8.50
2023-07-02T10:58:07.978Z,10.27
2023-07-02T11:02:11.274Z,6.50
2023-07-02T11:06:15.662Z,7.53
2023-07-02T11:10:22.405Z,7.77
2023-07-02T11:14:29.562Z,6.03
2023-07-02T11:18:33.241Z,5.63
2023-07-02T11:22:39.504Z,6.63
2023-07-02T11:26:44.411Z,6.10
2023-07-02T11:30:47.718Z,7.27
2023-07-02T11:34:56.029Z,6.57
2023-07-02T11:39:00.224Z,5.67
2023-07-02T11:43:03.085Z,8.20
2023-07-02T11:47:06.614Z,4.93
2023-07-02T11:51:09.481Z,4.97
2023-07-02T11:55:14.053Z,6.00
2023-07-02T11:59:16.886Z,6.10
2023-07-02T12:03:20.088Z,4.13
2023-07-02T12:07:22.885Z,6.17
2023-07-02T12:11:27.254Z,5.63
2023-07-02T12:15:30.100Z,4.63
2023-07-02T12:19:32.930Z,4.40
2023-07-02T12:23:35.742Z,5.20
2023-07-02T12:27:39.918Z,6.50
2023-07-02T12:31:42.746Z,5.43
2023-07-02T12:35:45.588Z,7.87
2023-07-02T12:39:48.460Z,6.37
2023-07-02T12:43:55.855Z,5.83
2023-07-02T12:47:58.708Z,4.97
2023-07-02T12:52:01.751Z,4.60
2023-07-02T12:56:05.001Z,8.63
2023-07-02T13:00:10.786Z,5.73
2023-07-02T13:04:15.867Z,4.43
2023-07-02T13:08:19.310Z,4.33
2023-07-02T13:12:22.149Z,5.00
2023-07-02T13:16:26.436Z,5.77
2023-07-02T13:20:29.434Z,5.83
2023-07-02T13:24:36.305Z,6.53
2023-07-02T13:28:39.158Z,5.20
2023-07-02T13:32:43.344Z,5.03
2023-07-02T13:36:46.165Z,4.53
2023-07-02T13:40:49.071Z,6.03
2023-07-02T13:44:52.010Z,6.60
2023-07-02T13:48:56.301Z,6.20
2023-07-02T13:52:59.188Z,6.40
2023-07-02T13:57:02.082Z,5.67
2023-07-02T14:01:06.917Z,6.07
2023-07-02T14:05:10.469Z,6.23
2023-07-02T14:09:13.808Z,6.67
2023-07-02T14:13:16.795Z,5.90
2023-07-02T14:17:21.412Z,5.60
2023-07-02T14:21:24.437Z,7.93
2023-07-02T14:25:40.747Z,6.90
2023-07-02T14:29:44.852Z,6.97
2023-07-02T14:33:49.233Z,5.37
2023-07-02T14:37:52.158Z,6.57
2023-07-02T14:41:55.019Z,7.03
2023-07-02T14:46:00.329Z,6.80
2023-07-02T14:50:04.775Z,4.67
2023-07-02T14:54:07.586Z,6.07
2023-07-02T14:58:11.611Z,4.90
2023-07-02T15:02:14.673Z,8.80
2023-07-02T15:06:20.387Z,5.63
2023-07-02T15:10:23.263Z,5.70
2023-07-02T15:14:26.278Z,5.57
2023-07-02T15:18:29.543Z,6.73
2023-07-02T15:22:33.748Z,9.10
2023-07-02T15:26:36.949Z,10.23
2023-07-02T15:30:40.957Z,5.50
2023-07-02T15:34:43.737Z,5.97
2023-07-02T15:38:48.032Z,8.37
2023-07-02T15:42:53.607Z,6.10
2023-07-02T15:46:57.529Z,6.47
2023-07-02T15:51:00.466Z,9.43
2023-07-02T15:55:04.750Z,6.63
2023-07-02T15:59:07.606Z,7.27
2023-07-02T16:03:10.421Z,5.67
2023-07-02T16:07:14.129Z,5.80
2023-07-02T16:11:18.271Z,7.63
2023-07-02T16:15:21.753Z,7.27
2023-07-02T16:19:25.216Z,6.10
2023-07-02T16:23:28.160Z,4.80
2023-07-02T16:27:32.372Z,7.03
2023-07-02T16:31:35.991Z,7.13
2023-07-02T16:35:38.955Z,6.50
2023-07-02T16:39:41.796Z,6.00
2023-07-02T16:43:45.931Z,7.90
2023-07-02T16:47:48.846Z,7.03
2023-07-02T16:51:52.352Z,5.70
2023-07-02T16:55:58.475Z,6.93
2023-07-02T17:00:02.771Z,6.07
2023-07-02T17:04:05.921Z,7.00
2023-07-02T17:08:08.945Z,6.43
2023-07-02T17:12:14.690Z,7.43
2023-07-02T17:16:18.979Z,8.37
2023-07-02T17:20:21.825Z,7.80
2023-07-02T17:24:26.767Z,7.47
2023-07-02T17:28:30.682Z,5.87
2023-07-02T17:32:35.773Z,6.77
2023-07-02T17:36:38.632Z,9.70
2023-07-02T17:40:42.014Z,10.13
2023-07-02T17:44:46.393Z,7.07
2023-07-02T17:48:50.575Z,6.13
2023-07-02T17:52:53.507Z,7.87
2023-07-02T17:56:56.889Z,7.80
2023-07-02T18:00:59.833Z,7.67
2023-07-02T18:05:04.295Z,6.33
2023-07-02T18:09:07.400Z,6.87
2023-07-02T18:13:10.692Z,9.43
2023-07-02T18:17:13.781Z,8.77
2023-07-02T18:21:18.159Z,7.90
2023-07-02T18:25:21.344Z,8.07
2023-07-02T18:29:24.231Z,6.77
2023-07-02T18:33:27.826Z,10.67
2023-07-02T18:37:32.017Z,7.77
2023-07-02T18:41:34.859Z,8.50
2023-07-02T18:45:37.680Z,7.03
2023-07-02T18:49:41.375Z,8.90
2023-07-02T18:53:45.580Z,8.17
2023-07-02T18:57:48.481Z,7.67
2023-07-02T19:01:51.764Z,5.90
2023-07-02T19:05:54.642Z,5.60
2023-07-02T19:09:59.917Z,8.03
2023-07-02T19:14:03.325Z,6.47
2023-07-02T19:18:08.056Z,6.10
2023-07-02T19:22:11.996Z,7.10
2023-07-02T19:26:16.151Z,7.07
2023-07-02T19:30:19.438Z,7.70
2023-07-02T19:34:22.454Z,6.50
2023-07-02T19:38:25.864Z,6.83
2023-07-02T19:42:31.573Z,5.90
2023-07-02T19:46:34.760Z,6.03
2023-07-02T19:50:37.678Z,7.80
2023-07-02T19:54:42.154Z,5.83
2023-07-02T19:58:47.026Z,7.47
2023-07-02T20:02:49.983Z,8.20
2023-07-02T20:06:53.068Z,6.43
2023-07-02T20:10:56.080Z,8.13
